Aumsville, Oregon
Current Conditions -  °F | °C
As of 7:56 PM on Wednesday 22 Oct 2014 (Local Time) from KSLE Reporting Station
Light Rain Light Rain  
Wind Chill: 14°   Ceiling: 5500
Heat Index: 14°   Visibility: 6mi
Dew Point: 12°   Wind: 13mph
Humidity: 89%   Direction: 160°SSE
Pressure: 29.72"   Gusts: NA
Location:  44.84°N, 122.87°W
Report Text: KSLE 230256Z 16011KT 6SM -RA BR FEW012 BKN055 OVC085 14/12 A2972 RMK AO2 SLP065 P0008 60024 T01390122 55004
Loading
Personal Weather Stations






























Interactive Weather Map
Tropical Storm Tracking
New forecast layout! Learn more

10-Day Weather Forecast

Advertisements
Track Severe Weather on mobile